createdAt,value
2023-02-17T00:00:40.087Z,18.13
2023-02-17T00:03:10.322Z,18.13
2023-02-17T00:05:39.799Z,17.71
2023-02-17T00:08:09.136Z,18.15
2023-02-17T00:10:37.331Z,15.19
2023-02-17T00:13:10.597Z,18.08
2023-02-17T00:15:40.047Z,17.51
2023-02-17T00:18:08.088Z,16.64
2023-02-17T00:20:35.961Z,17.16
2023-02-17T00:23:05.285Z,15.20
2023-02-17T00:25:35.668Z,16.93
2023-02-17T00:28:11.402Z,16.77
2023-02-17T00:30:39.619Z,17.93
2023-02-17T00:33:08.215Z,18.02
2023-02-17T00:35:43.230Z,15.57
2023-02-17T00:38:11.249Z,16.47
2023-02-17T00:40:43.524Z,14.85
2023-02-17T00:43:15.618Z,16.35
2023-02-17T00:45:43.776Z,14.82
2023-02-17T00:48:15.645Z,17.52
2023-02-17T00:50:46.734Z,17.44
2023-02-17T00:53:14.688Z,15.28
2023-02-17T00:55:47.123Z,17.72
2023-02-17T00:58:17.647Z,16.75
2023-02-17T01:00:45.841Z,16.03
2023-02-17T01:03:14.591Z,16.95
2023-02-17T01:05:46.400Z,17.62
2023-02-17T01:08:17.158Z,15.78
2023-02-17T01:10:54.849Z,17.67
2023-02-17T01:13:22.786Z,15.99
2023-02-17T01:15:53.807Z,17.88
2023-02-17T01:18:24.101Z,17.70
2023-02-17T01:20:52.952Z,17.82
2023-02-17T01:23:24.006Z,17.67
2023-02-17T01:25:54.033Z,17.73
2023-02-17T01:28:24.911Z,17.83
2023-02-17T01:30:53.695Z,16.74
2023-02-17T01:33:21.494Z,17.28
2023-02-17T01:35:53.029Z,17.66
2023-02-17T01:38:21.581Z,17.58
2023-02-17T01:40:51.149Z,16.69
2023-02-17T01:43:23.454Z,16.51
2023-02-17T01:45:52.710Z,17.73
2023-02-17T01:48:25.678Z,17.34
2023-02-17T01:51:02.755Z,17.75
2023-02-17T01:54:01.218Z,17.48
2023-02-17T01:56:33.751Z,17.06
2023-02-17T01:59:08.171Z,17.76
2023-02-17T02:01:39.563Z,17.63
2023-02-17T02:04:08.463Z,15.88
2023-02-17T02:06:41.885Z,16.32
2023-02-17T02:09:23.422Z,15.83
2023-02-17T02:11:52.401Z,17.55
2023-02-17T02:14:22.202Z,17.38
2023-02-17T02:17:17.231Z,17.68
2023-02-17T02:19:55.232Z,17.53
2023-02-17T02:22:47.822Z,17.74
2023-02-17T02:25:40.151Z,17.74
2023-02-17T02:28:46.485Z,17.70
2023-02-17T02:31:40.550Z,17.70
2023-02-17T02:34:22.894Z,17.69
2023-02-17T02:37:03.848Z,17.65
2023-02-17T02:39:39.886Z,17.63
2023-02-17T02:42:14.514Z,17.28
2023-02-17T02:44:43.766Z,17.37
2023-02-17T02:48:03.269Z,17.67
2023-02-17T02:50:40.967Z,17.67
2023-02-17T02:53:36.579Z,17.68
2023-02-17T02:56:46.329Z,17.67
2023-02-17T02:59:23.653Z,17.59
2023-02-17T03:02:06.856Z,17.31
2023-02-17T03:04:56.790Z,17.61
2023-02-17T03:07:32.358Z,16.32
2023-02-17T03:10:02.116Z,17.64
2023-02-17T03:12:31.566Z,17.40
2023-02-17T03:15:09.628Z,17.35
2023-02-17T03:17:40.173Z,16.06
2023-02-17T03:20:10.604Z,17.19
2023-02-17T03:22:45.400Z,17.62
2023-02-17T03:25:17.126Z,17.34
2023-02-17T03:27:46.578Z,17.57
2023-02-17T03:30:15.890Z,17.24
2023-02-17T03:32:45.592Z,16.91
2023-02-17T03:35:15.272Z,16.95
2023-02-17T03:37:44.393Z,17.42
2023-02-17T03:40:15.491Z,15.83
2023-02-17T03:42:46.524Z,15.65
2023-02-17T03:45:14.596Z,17.54
2023-02-17T03:47:42.594Z,16.64
2023-02-17T03:50:10.957Z,16.54
2023-02-17T03:52:39.277Z,16.65
2023-02-17T03:55:10.315Z,16.38
2023-02-17T03:57:38.754Z,15.26
2023-02-17T04:00:09.590Z,17.10
2023-02-17T04:02:44.729Z,15.86
2023-02-17T04:05:13.296Z,17.20
2023-02-17T04:07:41.415Z,16.09
2023-02-17T04:10:22.402Z,16.80
2023-02-17T04:12:50.894Z,17.43
2023-02-17T04:15:18.940Z,17.15
2023-02-17T04:17:49.249Z,16.53
2023-02-17T04:20:18.000Z,15.78
2023-02-17T04:22:50.976Z,17.11
2023-02-17T04:25:20.783Z,15.79
2023-02-17T04:27:48.660Z,16.81
2023-02-17T04:30:17.608Z,17.17
2023-02-17T04:32:48.498Z,16.97
2023-02-17T04:35:16.405Z,17.29
2023-02-17T04:37:44.414Z,17.09
2023-02-17T04:40:15.598Z,16.95
2023-02-17T04:42:43.512Z,17.13
2023-02-17T04:45:13.441Z,15.70
2023-02-17T04:47:41.634Z,16.98
2023-02-17T04:50:10.827Z,16.84
2023-02-17T04:52:39.188Z,17.21
2023-02-17T04:55:08.541Z,15.94
2023-02-17T04:57:36.968Z,17.09
2023-02-17T05:00:06.472Z,16.02
2023-02-17T05:02:34.411Z,17.22
2023-02-17T05:05:02.619Z,16.85
2023-02-17T05:07:31.015Z,16.23
2023-02-17T05:09:59.151Z,15.45
2023-02-17T05:12:27.968Z,16.45
2023-02-17T05:14:55.915Z,17.25
2023-02-17T05:17:23.775Z,16.72
2023-02-17T05:19:51.899Z,16.97
2023-02-17T05:22:19.864Z,15.55
2023-02-17T05:24:47.740Z,15.50
2023-02-17T05:27:15.758Z,14.67
2023-02-17T05:29:45.510Z,17.27
2023-02-17T05:32:14.293Z,17.27
2023-02-17T05:34:44.801Z,17.22
2023-02-17T05:37:12.979Z,16.17
2023-02-17T05:39:41.028Z,17.32
2023-02-17T05:42:09.198Z,16.86
2023-02-17T05:44:37.296Z,16.44
2023-02-17T05:47:08.225Z,17.45
2023-02-17T05:49:36.049Z,17.24
2023-02-17T05:52:04.455Z,16.29
2023-02-17T05:54:32.423Z,17.21
2023-02-17T05:57:00.253Z,17.02
2023-02-17T05:59:28.438Z,17.17
2023-02-17T06:01:56.705Z,17.39
2023-02-17T06:04:26.087Z,16.50
2023-02-17T06:06:54.751Z,14.90
2023-02-17T06:09:23.914Z,15.67
2023-02-17T06:11:52.437Z,16.03
2023-02-17T06:14:20.306Z,15.77
2023-02-17T06:16:48.437Z,15.09
2023-02-17T06:19:17.914Z,17.60
2023-02-17T06:21:45.950Z,15.39
2023-02-17T06:24:14.121Z,15.79
2023-02-17T06:26:42.136Z,17.71
2023-02-17T06:29:09.919Z,17.44
2023-02-17T06:31:37.924Z,17.44
2023-02-17T06:34:08.494Z,16.89
2023-02-17T06:36:37.493Z,17.44
2023-02-17T06:39:09.629Z,17.34
2023-02-17T06:41:38.488Z,17.78
2023-02-17T06:44:07.077Z,17.20
2023-02-17T06:46:35.697Z,17.79
2023-02-17T06:49:03.730Z,17.66
2023-02-17T06:51:33.895Z,17.85
2023-02-17T06:54:01.933Z,17.87
2023-02-17T06:56:30.106Z,17.61
2023-02-17T06:58:57.896Z,17.60
2023-02-17T07:01:26.626Z,17.92
2023-02-17T07:03:56.563Z,17.91
2023-02-17T07:06:26.813Z,16.59
2023-02-17T07:08:55.091Z,17.87
2023-02-17T07:11:23.096Z,17.36
2023-02-17T07:13:51.437Z,17.79
2023-02-17T07:16:20.742Z,16.77
2023-02-17T07:18:49.897Z,17.74
2023-02-17T07:21:18.850Z,14.58
2023-02-17T07:23:47.494Z,14.65
2023-02-17T07:26:15.661Z,16.64
2023-02-17T07:28:44.735Z,16.33
2023-02-17T07:31:17.055Z,16.05
2023-02-17T07:33:48.281Z,17.70
2023-02-17T07:36:19.050Z,16.19
2023-02-17T07:38:47.469Z,14.87
2023-02-17T07:41:18.234Z,16.87
2023-02-17T07:43:47.164Z,17.44
2023-02-17T07:46:18.801Z,15.95
2023-02-17T07:48:47.042Z,17.84
2023-02-17T07:51:17.850Z,16.71
2023-02-17T07:53:48.981Z,17.87
2023-02-17T07:56:19.853Z,17.37
2023-02-17T07:58:48.733Z,16.03
2023-02-17T08:01:24.199Z,16.27
2023-02-17T08:03:52.587Z,17.95
2023-02-17T08:06:23.126Z,17.58
2023-02-17T08:09:10.600Z,17.53
2023-02-17T08:11:57.347Z,17.97
2023-02-17T08:14:27.999Z,17.79
2023-02-17T08:16:56.446Z,18.09
2023-02-17T08:19:29.991Z,17.86
2023-02-17T08:22:01.778Z,17.86
2023-02-17T08:24:30.340Z,16.77
2023-02-17T08:27:00.899Z,18.18
2023-02-17T08:29:28.773Z,18.30
2023-02-17T08:31:56.625Z,18.13
2023-02-17T08:34:24.865Z,18.36
2023-02-17T08:36:53.687Z,18.41
2023-02-17T08:39:21.773Z,18.42
2023-02-17T08:41:50.028Z,18.37
2023-02-17T08:44:21.081Z,18.19
2023-02-17T08:46:51.834Z,18.18
2023-02-17T08:49:25.761Z,18.34
2023-02-17T08:51:54.925Z,19.01
2023-02-17T08:54:23.100Z,19.28
2023-02-17T08:56:51.004Z,19.41
2023-02-17T08:59:19.940Z,19.43
2023-02-17T09:01:48.928Z,19.37
2023-02-17T09:04:18.161Z,19.33
2023-02-17T09:06:52.975Z,18.45
2023-02-17T09:09:26.983Z,19.19
2023-02-17T09:11:59.253Z,19.19
2023-02-17T09:14:27.525Z,19.18
2023-02-17T09:16:56.605Z,18.37
2023-02-17T09:19:25.784Z,19.18
2023-02-17T09:21:54.268Z,18.91
2023-02-17T09:24:22.215Z,19.03
2023-02-17T09:26:50.639Z,18.83
2023-02-17T09:29:18.489Z,19.15
2023-02-17T09:31:46.578Z,18.67
2023-02-17T09:34:15.004Z,19.24
2023-02-17T09:36:43.184Z,19.28
2023-02-17T09:39:13.833Z,19.31
2023-02-17T09:41:47.667Z,18.95
2023-02-17T09:44:45.214Z,19.22
2023-02-17T09:47:21.299Z,19.03
2023-02-17T09:50:01.274Z,19.40
2023-02-17T09:52:41.839Z,19.56
2023-02-17T09:55:20.575Z,19.22
2023-02-17T09:58:09.593Z,19.68
2023-02-17T10:00:43.118Z,19.53
2023-02-17T10:03:32.588Z,19.76
2023-02-17T10:06:06.790Z,19.76
2023-02-17T10:08:44.057Z,19.32
2023-02-17T10:11:24.494Z,19.74
2023-02-17T10:13:55.292Z,19.24
2023-02-17T10:16:31.277Z,19.74
2023-02-17T10:19:05.092Z,18.24
2023-02-17T10:21:42.756Z,19.73
2023-02-17T10:24:13.774Z,19.74
2023-02-17T10:26:54.449Z,19.58
2023-02-17T10:29:51.157Z,19.72
2023-02-17T10:32:24.790Z,19.67
2023-02-17T10:35:04.787Z,19.65
2023-02-17T10:37:49.430Z,19.64
2023-02-17T10:40:26.942Z,19.63
2023-02-17T10:43:01.649Z,19.43
2023-02-17T10:45:41.629Z,19.33
2023-02-17T10:48:16.393Z,19.60
2023-02-17T10:50:47.886Z,17.11
2023-02-17T10:53:23.117Z,19.54
2023-02-17T10:56:03.705Z,19.60
2023-02-17T10:58:38.383Z,19.63
2023-02-17T11:01:09.342Z,19.63
2023-02-17T11:03:39.500Z,19.22
2023-02-17T11:06:24.072Z,19.39
2023-02-17T11:09:08.853Z,19.24
2023-02-17T11:11:37.317Z,19.22
2023-02-17T11:14:19.535Z,19.47
2023-02-17T11:16:54.868Z,19.59
2023-02-17T11:19:26.334Z,18.22
2023-02-17T11:21:58.806Z,19.57
2023-02-17T11:24:31.226Z,19.59
2023-02-17T11:27:05.838Z,19.61
2023-02-17T11:29:34.903Z,19.19
2023-02-17T11:32:09.356Z,19.58
2023-02-17T11:34:41.247Z,19.65
2023-02-17T11:37:14.838Z,19.67
2023-02-17T11:39:50.039Z,16.97
2023-02-17T11:42:31.817Z,19.60
2023-02-17T11:45:08.735Z,18.07
2023-02-17T11:48:08.977Z,18.11
2023-02-17T11:51:05.495Z,19.79
2023-02-17T11:54:17.726Z,19.80
2023-02-17T11:57:10.123Z,19.80
2023-02-17T12:00:04.772Z,19.82
2023-02-17T12:03:19.341Z,19.80
2023-02-17T12:06:17.289Z,19.78
2023-02-17T12:09:08.959Z,19.78
2023-02-17T12:11:59.552Z,19.28
2023-02-17T12:14:58.653Z,19.87
2023-02-17T12:18:05.965Z,19.85
2023-02-17T12:20:55.318Z,19.82
2023-02-17T12:23:45.467Z,19.81
2023-02-17T12:26:23.683Z,19.80
2023-02-17T12:28:54.438Z,19.81
2023-02-17T12:31:46.063Z,19.81
2023-02-17T12:34:35.384Z,19.83
2023-02-17T12:37:07.416Z,19.70
2023-02-17T12:39:42.729Z,19.11
2023-02-17T12:42:35.738Z,19.59
2023-02-17T12:45:25.167Z,19.34
2023-02-17T12:48:11.911Z,19.78
2023-02-17T12:51:13.099Z,19.36
2023-02-17T12:53:47.228Z,19.82
2023-02-17T12:56:51.194Z,19.87
2023-02-17T12:59:23.035Z,19.76
2023-02-17T13:02:01.143Z,19.86
2023-02-17T13:04:31.664Z,19.70
2023-02-17T13:07:21.375Z,19.87
2023-02-17T13:09:52.155Z,19.86
2023-02-17T13:12:22.948Z,19.87
2023-02-17T13:14:55.521Z,19.89
2023-02-17T13:17:30.774Z,19.90
2023-02-17T13:20:09.146Z,19.36
2023-02-17T13:22:41.044Z,19.39
2023-02-17T13:25:27.031Z,19.75
2023-02-17T13:27:55.304Z,19.86
2023-02-17T13:30:24.716Z,19.84
2023-02-17T13:33:05.724Z,19.66
2023-02-17T13:35:37.262Z,19.23
2023-02-17T13:38:05.876Z,18.51
2023-02-17T13:40:41.994Z,20.03
2023-02-17T13:43:16.959Z,20.20
2023-02-17T13:45:57.137Z,20.32
2023-02-17T13:48:32.154Z,20.05
2023-02-17T13:51:10.165Z,20.22
2023-02-17T13:53:41.530Z,19.36
2023-02-17T13:56:25.048Z,18.97
2023-02-17T13:58:53.892Z,19.65
2023-02-17T14:01:27.515Z,20.51
2023-02-17T14:03:56.823Z,20.63
2023-02-17T14:06:33.455Z,18.21
2023-02-17T14:09:13.116Z,19.75
2023-02-17T14:11:42.993Z,20.40
2023-02-17T14:14:11.552Z,20.07
2023-02-17T14:16:44.641Z,20.48
2023-02-17T14:19:21.615Z,20.56
2023-02-17T14:22:07.114Z,20.66
2023-02-17T14:24:40.720Z,20.66
2023-02-17T14:27:14.315Z,19.94
2023-02-17T14:29:50.541Z,20.65
2023-02-17T14:32:30.210Z,20.50
2023-02-17T14:35:10.406Z,20.61
2023-02-17T14:37:39.967Z,20.32
2023-02-17T14:40:18.505Z,20.31
2023-02-17T14:42:47.620Z,19.28
2023-02-17T14:45:16.906Z,18.29
2023-02-17T14:47:45.942Z,19.15
2023-02-17T14:50:16.883Z,20.32
2023-02-17T14:52:49.475Z,20.29
2023-02-17T14:55:39.072Z,20.13
2023-02-17T14:58:09.582Z,20.19
2023-02-17T15:00:37.537Z,19.69
2023-02-17T15:03:05.382Z,19.65
2023-02-17T15:05:35.906Z,19.41
2023-02-17T15:08:16.268Z,19.53
2023-02-17T15:10:44.745Z,20.14
2023-02-17T15:13:16.715Z,19.60
2023-02-17T15:15:47.606Z,17.27
2023-02-17T15:18:21.715Z,18.43
2023-02-17T15:20:51.925Z,18.37
2023-02-17T15:23:24.033Z,20.02
2023-02-17T15:25:54.084Z,19.31
2023-02-17T15:28:22.535Z,18.42
2023-02-17T15:30:56.751Z,20.01
2023-02-17T15:33:30.214Z,19.99
2023-02-17T15:35:59.220Z,19.61
2023-02-17T15:38:28.648Z,20.01
2023-02-17T15:40:58.839Z,19.99
2023-02-17T15:46:15.654Z,19.02
2023-02-17T15:48:48.706Z,18.24
2023-02-17T15:51:19.630Z,17.36
2023-02-17T15:53:50.076Z,19.76
2023-02-17T15:56:26.161Z,19.99
2023-02-17T15:58:57.129Z,19.05
2023-02-17T16:01:34.225Z,18.52
2023-02-17T16:04:02.736Z,18.42
2023-02-17T16:06:33.893Z,19.64
2023-02-17T16:09:01.646Z,19.02
2023-02-17T16:11:31.799Z,19.92
2023-02-17T16:14:02.154Z,18.67
2023-02-17T16:16:34.110Z,20.00
2023-02-17T16:19:04.854Z,19.84
2023-02-17T16:21:34.165Z,19.38
2023-02-17T16:24:02.291Z,19.99
2023-02-17T16:26:34.566Z,19.08
2023-02-17T16:29:09.759Z,19.95
2023-02-17T16:31:38.008Z,19.51
2023-02-17T16:34:06.166Z,18.82
2023-02-17T16:36:38.491Z,19.64
2023-02-17T16:39:18.052Z,19.83
2023-02-17T16:41:47.697Z,19.82
2023-02-17T16:44:18.124Z,19.81
2023-02-17T16:46:55.857Z,19.79
2023-02-17T16:49:34.224Z,19.60
2023-02-17T16:52:04.815Z,19.82
2023-02-17T16:54:35.372Z,17.77
2023-02-17T16:57:03.986Z,19.26
2023-02-17T16:59:32.138Z,19.76
2023-02-17T17:01:59.910Z,19.28
2023-02-17T17:04:28.057Z,18.26
2023-02-17T17:06:57.009Z,19.75
2023-02-17T17:09:25.941Z,18.29
2023-02-17T17:11:56.442Z,19.45
2023-02-17T17:14:25.062Z,18.68
2023-02-17T17:17:00.985Z,19.78
2023-02-17T17:19:28.890Z,19.79
2023-02-17T17:21:58.774Z,19.36
2023-02-17T17:24:27.104Z,18.66
2023-02-17T17:26:56.307Z,19.48
2023-02-17T17:29:24.165Z,19.86
2023-02-17T17:31:52.112Z,19.87
2023-02-17T17:34:19.842Z,19.83
2023-02-17T17:36:48.431Z,19.58
2023-02-17T17:39:22.021Z,19.68
2023-02-17T17:41:52.184Z,19.84
2023-02-17T17:44:22.050Z,19.61
2023-02-17T17:46:50.041Z,19.42
2023-02-17T17:49:18.669Z,19.74
2023-02-17T17:51:47.045Z,19.81
2023-02-17T17:54:17.419Z,19.49
2023-02-17T17:56:45.642Z,19.82
2023-02-17T17:59:14.693Z,19.80
2023-02-17T18:01:45.215Z,19.61
2023-02-17T18:04:15.772Z,19.68
2023-02-17T18:06:48.057Z,19.75
2023-02-17T18:09:31.157Z,19.21
2023-02-17T18:12:04.748Z,19.73
2023-02-17T18:14:33.191Z,19.51
2023-02-17T18:17:01.536Z,18.98
2023-02-17T18:19:30.740Z,19.70
2023-02-17T18:22:02.075Z,19.73
2023-02-17T18:24:32.887Z,17.68
2023-02-17T18:27:12.902Z,18.03
2023-02-17T18:29:41.532Z,17.87
2023-02-17T18:32:09.906Z,18.16
2023-02-17T18:34:37.923Z,19.76
2023-02-17T18:37:09.513Z,19.67
2023-02-17T18:39:38.511Z,19.70
2023-02-17T18:42:09.841Z,18.04
2023-02-17T18:44:38.133Z,17.99
2023-02-17T18:47:06.377Z,17.84
2023-02-17T18:52:17.604Z,19.72
2023-02-17T18:54:46.064Z,19.09
2023-02-17T18:57:14.730Z,17.85
2023-02-17T18:59:46.495Z,18.53
2023-02-17T19:02:14.620Z,19.69
2023-02-17T19:04:43.120Z,18.98
2023-02-17T19:07:12.044Z,18.75
2023-02-17T19:09:44.830Z,17.82
2023-02-17T19:12:13.835Z,17.98
2023-02-17T19:14:42.688Z,17.16
2023-02-17T19:17:12.632Z,16.62
2023-02-17T19:19:41.774Z,19.67
2023-02-17T19:22:11.224Z,16.86
2023-02-17T19:24:41.556Z,19.29
2023-02-17T19:27:10.648Z,19.25
2023-02-17T19:29:38.721Z,18.00
2023-02-17T19:32:07.916Z,19.78
2023-02-17T19:34:38.947Z,19.61
2023-02-17T19:37:09.290Z,18.91
2023-02-17T19:39:40.717Z,17.22
2023-02-17T19:42:08.852Z,19.60
2023-02-17T19:44:39.036Z,19.14
2023-02-17T19:47:06.948Z,19.10
2023-02-17T19:49:35.127Z,18.75
2023-02-17T19:52:06.896Z,18.85
2023-02-17T19:54:36.006Z,17.67
2023-02-17T19:57:04.059Z,19.74
2023-02-17T19:59:33.792Z,19.08
2023-02-17T20:02:01.957Z,19.25
2023-02-17T20:04:32.402Z,19.40
2023-02-17T20:07:01.358Z,19.71
2023-02-17T20:09:29.352Z,19.61
2023-02-17T20:11:57.335Z,19.50
2023-02-17T20:14:25.610Z,19.10
2023-02-17T20:16:56.623Z,19.14
2023-02-17T20:19:25.025Z,19.27
2023-02-17T20:21:53.209Z,19.42
2023-02-17T20:24:21.815Z,18.75
2023-02-17T20:26:53.941Z,18.93
2023-02-17T20:29:23.652Z,17.11
2023-02-17T20:31:54.535Z,17.70
2023-02-17T20:34:33.918Z,19.69
2023-02-17T20:37:02.642Z,18.48
2023-02-17T20:39:30.625Z,17.43
2023-02-17T20:42:00.458Z,18.69
2023-02-17T20:44:28.583Z,19.72
2023-02-17T20:46:57.327Z,19.72
2023-02-17T20:49:25.912Z,19.73
2023-02-17T20:51:54.281Z,19.15
2023-02-17T20:54:28.009Z,19.75
2023-02-17T20:57:00.309Z,19.36
2023-02-17T20:59:28.895Z,18.01
2023-02-17T21:02:01.450Z,18.15
2023-02-17T21:04:29.661Z,18.70
2023-02-17T21:06:57.468Z,18.68
2023-02-17T21:09:26.824Z,19.15
2023-02-17T21:11:54.732Z,18.48
2023-02-17T21:14:23.956Z,18.27
2023-02-17T21:16:51.900Z,19.84
2023-02-17T21:19:22.437Z,17.98
2023-02-17T21:21:51.272Z,19.49
2023-02-17T21:24:22.854Z,19.31
2023-02-17T21:26:51.926Z,18.88
2023-02-17T21:29:25.743Z,19.80
2023-02-17T21:31:59.141Z,17.47
2023-02-17T21:34:27.174Z,19.79
2023-02-17T21:36:58.419Z,18.35
2023-02-17T21:39:26.980Z,19.60
2023-02-17T21:41:55.995Z,19.72
2023-02-17T21:44:46.171Z,19.40
2023-02-17T21:47:16.267Z,19.79
2023-02-17T21:49:45.912Z,19.74
2023-02-17T21:52:15.578Z,19.73
2023-02-17T21:54:43.535Z,19.09
2023-02-17T21:57:12.562Z,19.68
2023-02-17T21:59:44.591Z,19.70
2023-02-17T22:02:14.360Z,18.59
2023-02-17T22:04:45.879Z,19.31
2023-02-17T22:07:14.054Z,19.60
2023-02-17T22:09:43.973Z,18.29
2023-02-17T22:12:15.111Z,18.32
2023-02-17T22:14:44.801Z,18.23
2023-02-17T22:17:15.449Z,18.87
2023-02-17T22:19:43.840Z,19.60
2023-02-17T22:22:14.161Z,19.62
2023-02-17T22:24:43.830Z,19.39
2023-02-17T22:27:12.195Z,19.34
2023-02-17T22:29:41.149Z,18.04
2023-02-17T22:32:09.072Z,18.60
2023-02-17T22:34:40.569Z,17.68
2023-02-17T22:37:08.842Z,19.57
2023-02-17T22:39:39.611Z,17.32
2023-02-17T22:42:08.009Z,19.48
2023-02-17T22:44:38.608Z,17.58
2023-02-17T22:47:07.717Z,17.65
2023-02-17T22:49:36.719Z,18.87
2023-02-17T22:52:09.739Z,18.44
2023-02-17T22:54:39.143Z,19.34
2023-02-17T22:57:09.493Z,19.44
2023-02-17T22:59:37.486Z,18.31
2023-02-17T23:02:07.047Z,19.38
2023-02-17T23:04:35.330Z,19.50
2023-02-17T23:07:05.257Z,17.37
2023-02-17T23:09:33.191Z,18.98
2023-02-17T23:12:01.381Z,19.04
2023-02-17T23:14:49.139Z,18.41
2023-02-17T23:17:17.931Z,19.36
2023-02-17T23:19:47.792Z,17.79
2023-02-17T23:22:19.959Z,17.45
2023-02-17T23:24:48.680Z,19.28
2023-02-17T23:27:16.734Z,17.02
2023-02-17T23:29:44.842Z,18.33
2023-02-17T23:32:15.234Z,17.47
2023-02-17T23:34:43.479Z,17.61
2023-02-17T23:37:13.408Z,17.98
2023-02-17T23:39:42.121Z,18.16
2023-02-17T23:42:10.486Z,17.43
2023-02-17T23:44:38.744Z,18.26
2023-02-17T23:47:06.704Z,18.70
2023-02-17T23:49:34.596Z,19.22
2023-02-17T23:52:03.242Z,18.93
2023-02-17T23:54:31.916Z,18.76
2023-02-17T23:57:01.785Z,18.63
2023-02-17T23:59:30.346Z,18.17
